Hauptseite
METAR-TAF:

METAR-TAF

Flughäfen :

Militärflugplatz Cazaux

Cazaux, Frankreich

Breite: 44-32N, Länge: 001-08W, Höhe: 25 m

Beobachtung

Neuester Wetterbericht von vor 25 Minuten, um 23:30 UTC
Wind 9 kt aus Nord/Nordost
Temperatur 7°C
Luftfeuchtigkeit 49%
Luftdruck 1023 hPa
Sichtweite 10 km oder mehr
keine Wolken unter 1500 m und keine Kumulonimbus oder Gewitterwolken

METAR: LFBC 142330Z AUTO 02009KT CAVOK 07/M03 Q1023

Zeit: 01:55 (23:55 UTC)

Prognose

Neuester Wetterbericht von vor 3 Stunden und 55 Minuten, um 20:00 UTC
Gültige Prognose vom 14 um 21 UTC bis 15 um 21 UTC
Wind 10 kt aus Nordost
Sichtweite 10 km oder mehr
keine Wolken unter 1500 m und keine Kumulonimbus oder Gewitterwolken

TAF: LFBC 142000Z 1421/1521 04010KT CAVOK

Wetterbeobachtungen und Prognosen von mehr als 4000 Flughäfen (METAR und TAF Bericht).

Die verfügbaren Stationen werden durch gelbe und rote Markierungen auf der Karte dargestellt.

Führen Sie die Maus auf sie, um den Namen der Station zu sehen.

Darauf klicken, um die Beobachtung von Wetterbeobachtungen und Prognosen zu sehen.

Um die Karte zu ändern : klicken Sie auf den grünen Tasten mit einem schwarzen Kreuz Zum Vergrößern, auf den grünen Button mit einem Gedankenstrich zu verkleinern, oder auf die grünen Pfeile für benachbarte Karten.


METAR-TAF: